Portada
METAR-TAF:

METAR-TAF

Aeroports :

Franklin Municipal-John Beverly Rose Airport

Franklin, Virgínia, Estats Units d'Amèrica

latitud: 36-42N, longitud: 076-54W, altitud: 12 m

Observació

L'informe es va fer fa 31 minuts, a les 22:55 UTC
Vent 8 kt del Est/Nord-Est amb ràfegues de 14 kt
Temperatura 17°C
Humitat 100%
Pressió 1021 hPa
Visibilitat: 16.1 km
Cel cobert a una alçada de 1300 ft

METAR: KFKN 242255Z AUTO 07008G14KT 10SM OVC013 17/17 A3015 RMK AO2 T01700165

Hora: 19:26 (23:26 UTC)


TAF: manca

Observacions i pronòstics meteorològics de més de 4000 aeroports (METAR i TAF).

Les estacions disponibles són els punts grocs i vermells al mapa.

Posi el ratolí al punt desitjat per veure el nom de l'estació.

Feu clic per veure les observacions i els pronòstics meteorològics.

Per canviar el mapa: feu clic els botons verds amb una creu de color negre per apropar; al botó verd amb un guió per allunyar la imatge; o en les fletxes verdes per a mapes adjacents.


METAR-TAF: